sensor_id;sensor_type;location;lat;lon;timestamp;pressure;altitude;pressure_sealevel;temperature;humidity
64644;BME280;51056;50.330;7.914;2024-02-04T00:02:12;101534.03;;;9.53;99.17
64644;BME280;51056;50.330;7.914;2024-02-04T00:05:17;101526.06;;;9.58;98.93
64644;BME280;51056;50.330;7.914;2024-02-04T00:08:21;101529.47;;;9.60;98.62
64644;BME280;51056;50.330;7.914;2024-02-04T00:11:24;101534.69;;;9.60;98.31
64644;BME280;51056;50.330;7.914;2024-02-04T00:14:28;101537.41;;;9.57;99.16
64644;BME280;51056;50.330;7.914;2024-02-04T00:17:31;101535.41;;;9.65;98.69
64644;BME280;51056;50.330;7.914;2024-02-04T00:20:35;101529.81;;;9.77;98.59
64644;BME280;51056;50.330;7.914;2024-02-04T00:23:38;101517.28;;;9.87;97.85
64644;BME280;51056;50.330;7.914;2024-02-04T00:26:41;101503.91;;;9.69;98.22
64644;BME280;51056;50.330;7.914;2024-02-04T00:29:44;101503.63;;;9.78;98.75
64644;BME280;51056;50.330;7.914;2024-02-04T00:32:47;101503.16;;;9.66;99.31
64644;BME280;51056;50.330;7.914;2024-02-04T00:35:50;101497.75;;;9.72;99.18
64644;BME280;51056;50.330;7.914;2024-02-04T00:38:54;101500.16;;;9.51;99.85
64644;BME280;51056;50.330;7.914;2024-02-04T00:41:57;101514.34;;;9.69;99.51
64644;BME280;51056;50.330;7.914;2024-02-04T00:45:00;101511.72;;;9.71;99.47
64644;BME280;51056;50.330;7.914;2024-02-04T00:48:03;101510.13;;;9.67;100.00
64644;BME280;51056;50.330;7.914;2024-02-04T00:51:07;101522.81;;;9.51;100.00
64644;BME280;51056;50.330;7.914;2024-02-04T00:54:10;101528.25;;;9.43;100.00
64644;BME280;51056;50.330;7.914;2024-02-04T00:57:13;101524.72;;;9.44;100.00
64644;BME280;51056;50.330;7.914;2024-02-04T01:00:16;101519.78;;;9.37;100.00
64644;BME280;51056;50.330;7.914;2024-02-04T01:03:20;101511.34;;;9.55;100.00
64644;BME280;51056;50.330;7.914;2024-02-04T01:06:22;101519.69;;;9.66;100.00
64644;BME280;51056;50.330;7.914;2024-02-04T01:09:26;101524.78;;;9.71;100.00
64644;BME280;51056;50.330;7.914;2024-02-04T01:12:28;101528.97;;;9.75;100.00
64644;BME280;51056;50.330;7.914;2024-02-04T01:15:32;101526.63;;;9.67;100.00
64644;BME280;51056;50.330;7.914;2024-02-04T01:18:34;101538.50;;;9.49;100.00
64644;BME280;51056;50.330;7.914;2024-02-04T01:21:37;101544.00;;;9.40;100.00
64644;BME280;51056;50.330;7.914;2024-02-04T01:24:40;101548.28;;;9.15;100.00
64644;BME280;51056;50.330;7.914;2024-02-04T01:27:43;101549.94;;;9.17;100.00
64644;BME280;51056;50.330;7.914;2024-02-04T01:30:46;101542.03;;;9.20;100.00
64644;BME280;51056;50.330;7.914;2024-02-04T01:33:49;101546.22;;;9.26;100.00
64644;BME280;51056;50.330;7.914;2024-02-04T01:36:52;101541.44;;;9.11;100.00
64644;BME280;51056;50.330;7.914;2024-02-04T01:39:57;101528.22;;;9.17;100.00
64644;BME280;51056;50.330;7.914;2024-02-04T01:42:59;101534.53;;;9.10;100.00
64644;BME280;51056;50.330;7.914;2024-02-04T01:46:02;101525.06;;;9.05;100.00
64644;BME280;51056;50.330;7.914;2024-02-04T01:49:05;101519.81;;;9.07;100.00
64644;BME280;51056;50.330;7.914;2024-02-04T01:52:09;101517.63;;;9.21;100.00
64644;BME280;51056;50.330;7.914;2024-02-04T01:55:13;101516.97;;;9.15;100.00
64644;BME280;51056;50.330;7.914;2024-02-04T01:58:16;101519.72;;;9.10;100.00
64644;BME280;51056;50.330;7.914;2024-02-04T02:01:19;101523.38;;;9.04;100.00
64644;BME280;51056;50.330;7.914;2024-02-04T02:04:23;101523.00;;;9.17;100.00
64644;BME280;51056;50.330;7.914;2024-02-04T02:07:26;101508.03;;;9.22;100.00
64644;BME280;51056;50.330;7.914;2024-02-04T02:10:30;101501.78;;;9.27;100.00
64644;BME280;51056;50.330;7.914;2024-02-04T02:16:36;101501.00;;;8.96;100.00
64644;BME280;51056;50.330;7.914;2024-02-04T02:22:59;101489.53;;;9.01;100.00
64644;BME280;51056;50.330;7.914;2024-02-04T02:26:06;101486.28;;;9.23;100.00
64644;BME280;51056;50.330;7.914;2024-02-04T02:29:09;101483.50;;;8.99;100.00
64644;BME280;51056;50.330;7.914;2024-02-04T02:32:12;101481.78;;;9.00;100.00
64644;BME280;51056;50.330;7.914;2024-02-04T02:35:15;101473.63;;;9.09;100.00
64644;BME280;51056;50.330;7.914;2024-02-04T02:38:33;101480.81;;;9.02;100.00
64644;BME280;51056;50.330;7.914;2024-02-04T02:41:41;101479.44;;;8.91;100.00
64644;BME280;51056;50.330;7.914;2024-02-04T02:44:45;101473.56;;;8.84;100.00
64644;BME280;51056;50.330;7.914;2024-02-04T02:47:49;101468.94;;;8.92;100.00
64644;BME280;51056;50.330;7.914;2024-02-04T02:50:53;101452.28;;;8.96;100.00
64644;BME280;51056;50.330;7.914;2024-02-04T02:53:56;101460.31;;;8.90;100.00
64644;BME280;51056;50.330;7.914;2024-02-04T02:56:59;101459.59;;;8.85;100.00
64644;BME280;51056;50.330;7.914;2024-02-04T03:00:02;101464.00;;;8.83;100.00
64644;BME280;51056;50.330;7.914;2024-02-04T03:03:06;101464.09;;;8.80;100.00
64644;BME280;51056;50.330;7.914;2024-02-04T03:06:09;101458.78;;;8.83;100.00
64644;BME280;51056;50.330;7.914;2024-02-04T03:09:12;101462.22;;;8.85;100.00
64644;BME280;51056;50.330;7.914;2024-02-04T03:12:15;101453.66;;;8.80;100.00
64644;BME280;51056;50.330;7.914;2024-02-04T03:15:18;101457.94;;;8.82;100.00
64644;BME280;51056;50.330;7.914;2024-02-04T03:18:22;101452.53;;;8.89;100.00
64644;BME280;51056;50.330;7.914;2024-02-04T03:21:25;101454.41;;;8.85;100.00
64644;BME280;51056;50.330;7.914;2024-02-04T03:24:28;101448.72;;;9.00;100.00
64644;BME280;51056;50.330;7.914;2024-02-04T03:27:31;101450.75;;;8.91;100.00
64644;BME280;51056;50.330;7.914;2024-02-04T03:30:34;101442.78;;;8.95;100.00
64644;BME280;51056;50.330;7.914;2024-02-04T03:33:37;101440.78;;;9.03;100.00
64644;BME280;51056;50.330;7.914;2024-02-04T03:36:40;101448.00;;;8.95;100.00
64644;BME280;51056;50.330;7.914;2024-02-04T03:39:44;101441.75;;;8.99;100.00
64644;BME280;51056;50.330;7.914;2024-02-04T03:42:47;101447.72;;;9.04;100.00
64644;BME280;51056;50.330;7.914;2024-02-04T03:45:51;101446.28;;;8.94;100.00
64644;BME280;51056;50.330;7.914;2024-02-04T03:48:54;101441.75;;;9.01;100.00
64644;BME280;51056;50.330;7.914;2024-02-04T03:51:57;101450.50;;;8.98;100.00
64644;BME280;51056;50.330;7.914;2024-02-04T03:55:00;101453.50;;;9.14;100.00
64644;BME280;51056;50.330;7.914;2024-02-04T03:58:05;101453.47;;;9.16;100.00
64644;BME280;51056;50.330;7.914;2024-02-04T04:04:39;101434.50;;;9.09;100.00
64644;BME280;51056;50.330;7.914;2024-02-04T04:07:42;101445.41;;;9.22;100.00
64644;BME280;51056;50.330;7.914;2024-02-04T04:10:45;101435.19;;;9.16;100.00
64644;BME280;51056;50.330;7.914;2024-02-04T04:13:48;101430.81;;;9.16;100.00
64644;BME280;51056;50.330;7.914;2024-02-04T04:16:51;101430.28;;;9.05;100.00
64644;BME280;51056;50.330;7.914;2024-02-04T04:19:54;101435.38;;;9.10;100.00
64644;BME280;51056;50.330;7.914;2024-02-04T04:22:57;101433.47;;;9.15;100.00
64644;BME280;51056;50.330;7.914;2024-02-04T04:25:59;101432.38;;;9.22;100.00
64644;BME280;51056;50.330;7.914;2024-02-04T04:29:02;101441.09;;;9.21;100.00
64644;BME280;51056;50.330;7.914;2024-02-04T04:32:05;101431.47;;;9.23;100.00
64644;BME280;51056;50.330;7.914;2024-02-04T04:35:08;101431.19;;;9.32;100.00
64644;BME280;51056;50.330;7.914;2024-02-04T04:38:11;101446.31;;;9.21;100.00
64644;BME280;51056;50.330;7.914;2024-02-04T04:41:14;101440.50;;;9.13;100.00
64644;BME280;51056;50.330;7.914;2024-02-04T04:44:17;101427.00;;;9.26;100.00
64644;BME280;51056;50.330;7.914;2024-02-04T04:47:20;101436.50;;;9.29;100.00
64644;BME280;51056;50.330;7.914;2024-02-04T04:50:23;101438.19;;;9.30;100.00
64644;BME280;51056;50.330;7.914;2024-02-04T04:53:25;101439.81;;;9.34;100.00
64644;BME280;51056;50.330;7.914;2024-02-04T04:56:28;101447.13;;;9.23;100.00
64644;BME280;51056;50.330;7.914;2024-02-04T04:59:31;101435.59;;;9.30;100.00
64644;BME280;51056;50.330;7.914;2024-02-04T05:02:34;101444.13;;;9.35;100.00
64644;BME280;51056;50.330;7.914;2024-02-04T05:05:37;101437.94;;;9.38;100.00
64644;BME280;51056;50.330;7.914;2024-02-04T05:08:40;101436.50;;;9.29;100.00
64644;BME280;51056;50.330;7.914;2024-02-04T05:11:43;101428.50;;;9.34;100.00
64644;BME280;51056;50.330;7.914;2024-02-04T05:14:46;101438.09;;;9.33;100.00
64644;BME280;51056;50.330;7.914;2024-02-04T05:17:50;101441.53;;;9.35;100.00
64644;BME280;51056;50.330;7.914;2024-02-04T05:20:54;101446.84;;;9.32;100.00
64644;BME280;51056;50.330;7.914;2024-02-04T05:23:58;101465.91;;;9.34;100.00
64644;BME280;51056;50.330;7.914;2024-02-04T05:27:00;101461.53;;;9.35;100.00
64644;BME280;51056;50.330;7.914;2024-02-04T05:30:03;101452.44;;;9.46;100.00
64644;BME280;51056;50.330;7.914;2024-02-04T05:33:07;101459.81;;;9.35;100.00
64644;BME280;51056;50.330;7.914;2024-02-04T05:36:11;101443.31;;;9.33;100.00
64644;BME280;51056;50.330;7.914;2024-02-04T05:39:15;101451.97;;;9.35;100.00
64644;BME280;51056;50.330;7.914;2024-02-04T05:42:20;101428.41;;;9.37;100.00
64644;BME280;51056;50.330;7.914;2024-02-04T05:45:24;101431.75;;;9.42;100.00
64644;BME280;51056;50.330;7.914;2024-02-04T05:48:27;101431.94;;;9.36;100.00
64644;BME280;51056;50.330;7.914;2024-02-04T05:51:39;101448.16;;;9.45;100.00
64644;BME280;51056;50.330;7.914;2024-02-04T05:55:16;101436.31;;;9.35;100.00
64644;BME280;51056;50.330;7.914;2024-02-04T05:58:19;101444.03;;;9.38;100.00
64644;BME280;51056;50.330;7.914;2024-02-04T06:01:29;101431.63;;;9.45;100.00
64644;BME280;51056;50.330;7.914;2024-02-04T06:04:32;101428.75;;;9.52;100.00
64644;BME280;51056;50.330;7.914;2024-02-04T06:07:35;101433.06;;;9.53;100.00
64644;BME280;51056;50.330;7.914;2024-02-04T06:10:40;101431.88;;;9.37;99.84
64644;BME280;51056;50.330;7.914;2024-02-04T06:13:44;101430.66;;;9.47;99.33
64644;BME280;51056;50.330;7.914;2024-02-04T06:16:47;101438.50;;;9.47;100.00
64644;BME280;51056;50.330;7.914;2024-02-04T06:19:50;101438.44;;;9.49;99.98
64644;BME280;51056;50.330;7.914;2024-02-04T06:22:52;101427.75;;;9.57;99.44
64644;BME280;51056;50.330;7.914;2024-02-04T06:25:56;101423.59;;;9.51;99.26
64644;BME280;51056;50.330;7.914;2024-02-04T06:28:58;101426.97;;;9.54;98.83
64644;BME280;51056;50.330;7.914;2024-02-04T06:32:01;101426.84;;;9.58;98.94
64644;BME280;51056;50.330;7.914;2024-02-04T06:35:04;101433.44;;;9.43;99.80
64644;BME280;51056;50.330;7.914;2024-02-04T06:38:07;101437.59;;;9.48;100.00
64644;BME280;51056;50.330;7.914;2024-02-04T06:41:10;101427.91;;;9.52;100.00
64644;BME280;51056;50.330;7.914;2024-02-04T06:44:14;101426.44;;;9.43;100.00
64644;BME280;51056;50.330;7.914;2024-02-04T06:47:17;101420.28;;;9.46;100.00
64644;BME280;51056;50.330;7.914;2024-02-04T06:50:20;101412.47;;;9.44;100.00
64644;BME280;51056;50.330;7.914;2024-02-04T06:53:24;101411.50;;;9.48;100.00
64644;BME280;51056;50.330;7.914;2024-02-04T06:56:28;101412.56;;;9.43;100.00
64644;BME280;51056;50.330;7.914;2024-02-04T06:59:31;101424.75;;;9.42;100.00
64644;BME280;51056;50.330;7.914;2024-02-04T07:02:36;101432.19;;;9.54;100.00
64644;BME280;51056;50.330;7.914;2024-02-04T07:05:40;101432.88;;;9.60;100.00
64644;BME280;51056;50.330;7.914;2024-02-04T07:08:43;101435.38;;;9.63;100.00
64644;BME280;51056;50.330;7.914;2024-02-04T07:11:46;101429.75;;;9.75;98.92
64644;BME280;51056;50.330;7.914;2024-02-04T07:14:50;101434.16;;;9.73;99.34
64644;BME280;51056;50.330;7.914;2024-02-04T07:17:55;101418.38;;;9.76;98.58
64644;BME280;51056;50.330;7.914;2024-02-04T07:21:00;101425.03;;;9.60;98.50
64644;BME280;51056;50.330;7.914;2024-02-04T07:24:03;101420.19;;;9.49;99.26
64644;BME280;51056;50.330;7.914;2024-02-04T07:27:06;101422.81;;;9.47;100.00
64644;BME280;51056;50.330;7.914;2024-02-04T07:30:09;101423.25;;;9.35;100.00
64644;BME280;51056;50.330;7.914;2024-02-04T07:33:13;101427.16;;;9.48;100.00
64644;BME280;51056;50.330;7.914;2024-02-04T07:36:17;101427.25;;;9.45;100.00
64644;BME280;51056;50.330;7.914;2024-02-04T07:39:19;101434.09;;;9.49;100.00
64644;BME280;51056;50.330;7.914;2024-02-04T07:42:22;101436.09;;;9.41;100.00
64644;BME280;51056;50.330;7.914;2024-02-04T07:45:25;101439.59;;;9.40;100.00
64644;BME280;51056;50.330;7.914;2024-02-04T07:48:28;101443.22;;;9.36;100.00
64644;BME280;51056;50.330;7.914;2024-02-04T07:51:30;101429.06;;;9.43;100.00
64644;BME280;51056;50.330;7.914;2024-02-04T07:54:34;101442.94;;;9.45;100.00
64644;BME280;51056;50.330;7.914;2024-02-04T07:57:37;101421.94;;;9.48;100.00
64644;BME280;51056;50.330;7.914;2024-02-04T08:00:41;101418.63;;;9.43;100.00
64644;BME280;51056;50.330;7.914;2024-02-04T08:03:43;101420.75;;;9.57;99.98
64644;BME280;51056;50.330;7.914;2024-02-04T08:06:49;101404.00;;;9.64;99.48
64644;BME280;51056;50.330;7.914;2024-02-04T08:09:52;101409.38;;;9.60;99.82
64644;BME280;51056;50.330;7.914;2024-02-04T08:12:56;101411.97;;;9.60;100.00
64644;BME280;51056;50.330;7.914;2024-02-04T08:15:59;101414.47;;;9.63;100.00
64644;BME280;51056;50.330;7.914;2024-02-04T08:19:02;101417.56;;;9.49;100.00
64644;BME280;51056;50.330;7.914;2024-02-04T08:22:05;101412.69;;;9.65;100.00
64644;BME280;51056;50.330;7.914;2024-02-04T08:25:08;101415.22;;;9.66;100.00
64644;BME280;51056;50.330;7.914;2024-02-04T08:28:14;101422.59;;;9.80;99.41
64644;BME280;51056;50.330;7.914;2024-02-04T08:31:17;101433.56;;;9.65;100.00
64644;BME280;51056;50.330;7.914;2024-02-04T08:34:20;101435.56;;;9.57;100.00
64644;BME280;51056;50.330;7.914;2024-02-04T08:37:26;101432.00;;;9.59;100.00
64644;BME280;51056;50.330;7.914;2024-02-04T08:40:29;101419.03;;;9.58;100.00
64644;BME280;51056;50.330;7.914;2024-02-04T08:43:32;101409.56;;;9.53;100.00
64644;BME280;51056;50.330;7.914;2024-02-04T08:46:35;101398.72;;;9.66;100.00
64644;BME280;51056;50.330;7.914;2024-02-04T08:49:38;101409.16;;;9.66;99.82
64644;BME280;51056;50.330;7.914;2024-02-04T08:52:40;101403.50;;;9.78;98.99
64644;BME280;51056;50.330;7.914;2024-02-04T08:55:44;101414.66;;;9.83;99.65
64644;BME280;51056;50.330;7.914;2024-02-04T08:58:47;101414.88;;;9.77;99.95
64644;BME280;51056;50.330;7.914;2024-02-04T09:01:51;101416.88;;;9.69;99.65
64644;BME280;51056;50.330;7.914;2024-02-04T09:04:53;101412.38;;;9.74;98.62
64644;BME280;51056;50.330;7.914;2024-02-04T09:07:56;101419.19;;;9.78;98.46
64644;BME280;51056;50.330;7.914;2024-02-04T09:10:59;101419.94;;;9.82;97.87
64644;BME280;51056;50.330;7.914;2024-02-04T09:14:02;101410.28;;;9.84;98.81
64644;BME280;51056;50.330;7.914;2024-02-04T09:17:07;101424.78;;;9.92;97.93
64644;BME280;51056;50.330;7.914;2024-02-04T09:20:11;101410.13;;;9.88;98.10
64644;BME280;51056;50.330;7.914;2024-02-04T09:23:14;101409.06;;;9.94;98.29
64644;BME280;51056;50.330;7.914;2024-02-04T09:26:16;101405.09;;;9.82;99.44
64644;BME280;51056;50.330;7.914;2024-02-04T09:29:20;101404.78;;;9.91;98.74
64644;BME280;51056;50.330;7.914;2024-02-04T09:32:23;101408.19;;;9.93;98.60
64644;BME280;51056;50.330;7.914;2024-02-04T09:35:26;101400.19;;;9.98;98.41
64644;BME280;51056;50.330;7.914;2024-02-04T09:38:30;101401.44;;;10.11;98.89
64644;BME280;51056;50.330;7.914;2024-02-04T09:41:33;101410.31;;;9.82;99.72
64644;BME280;51056;50.330;7.914;2024-02-04T09:44:36;101405.06;;;9.84;99.41
64644;BME280;51056;50.330;7.914;2024-02-04T09:47:41;101403.13;;;9.89;99.22
64644;BME280;51056;50.330;7.914;2024-02-04T09:50:45;101418.13;;;9.84;100.00
64644;BME280;51056;50.330;7.914;2024-02-04T09:53:51;101435.81;;;9.75;100.00
64644;BME280;51056;50.330;7.914;2024-02-04T09:56:55;101430.97;;;9.65;100.00
64644;BME280;51056;50.330;7.914;2024-02-04T09:59:58;101432.97;;;9.57;100.00
64644;BME280;51056;50.330;7.914;2024-02-04T10:03:04;101426.41;;;9.70;100.00
64644;BME280;51056;50.330;7.914;2024-02-04T10:06:08;101440.28;;;9.72;100.00
64644;BME280;51056;50.330;7.914;2024-02-04T10:09:12;101429.84;;;9.72;100.00
64644;BME280;51056;50.330;7.914;2024-02-04T10:12:18;101425.16;;;9.82;100.00
64644;BME280;51056;50.330;7.914;2024-02-04T10:15:21;101437.25;;;9.84;100.00
64644;BME280;51056;50.330;7.914;2024-02-04T10:18:24;101444.47;;;9.77;100.00
64644;BME280;51056;50.330;7.914;2024-02-04T10:21:28;101429.94;;;9.69;100.00
64644;BME280;51056;50.330;7.914;2024-02-04T10:24:32;101434.00;;;9.77;100.00
64644;BME280;51056;50.330;7.914;2024-02-04T10:27:35;101424.81;;;9.66;100.00
64644;BME280;51056;50.330;7.914;2024-02-04T10:30:39;101424.19;;;9.84;100.00
64644;BME280;51056;50.330;7.914;2024-02-04T10:36:45;101418.13;;;9.84;100.00
64644;BME280;51056;50.330;7.914;2024-02-04T10:39:47;101424.22;;;9.83;100.00
64644;BME280;51056;50.330;7.914;2024-02-04T10:42:51;101425.00;;;9.86;100.00
64644;BME280;51056;50.330;7.914;2024-02-04T10:45:57;101423.28;;;9.85;100.00
64644;BME280;51056;50.330;7.914;2024-02-04T10:49:03;101418.22;;;9.81;100.00
64644;BME280;51056;50.330;7.914;2024-02-04T10:52:09;101403.41;;;9.81;100.00
64644;BME280;51056;50.330;7.914;2024-02-04T10:55:15;101392.63;;;9.90;100.00
64644;BME280;51056;50.330;7.914;2024-02-04T10:58:20;101396.06;;;9.92;100.00
64644;BME280;51056;50.330;7.914;2024-02-04T11:01:26;101387.81;;;9.80;100.00
64644;BME280;51056;50.330;7.914;2024-02-04T11:04:30;101384.09;;;9.85;100.00
64644;BME280;51056;50.330;7.914;2024-02-04T11:07:33;101388.47;;;9.85;100.00
64644;BME280;51056;50.330;7.914;2024-02-04T11:10:37;101395.16;;;9.93;100.00
64644;BME280;51056;50.330;7.914;2024-02-04T11:13:47;101388.97;;;9.96;99.64
64644;BME280;51056;50.330;7.914;2024-02-04T11:26:51;101379.91;;;10.05;98.13
64644;BME280;51056;50.330;7.914;2024-02-04T11:29:56;101372.19;;;10.01;99.62
64644;BME280;51056;50.330;7.914;2024-02-04T11:33:00;101372.06;;;10.05;98.92
64644;BME280;51056;50.330;7.914;2024-02-04T11:36:04;101374.34;;;10.14;98.73
64644;BME280;51056;50.330;7.914;2024-02-04T11:39:14;101382.41;;;10.08;97.26
64644;BME280;51056;50.330;7.914;2024-02-04T11:42:17;101375.34;;;10.80;100.00
64644;BME280;51056;50.330;7.914;2024-02-04T11:45:20;101364.63;;;11.08;94.39
64644;BME280;51056;50.330;7.914;2024-02-04T11:48:28;101357.94;;;10.79;93.25
64644;BME280;51056;50.330;7.914;2024-02-04T11:51:32;101344.03;;;10.33;95.16
64644;BME280;51056;50.330;7.914;2024-02-04T11:54:35;101354.72;;;10.27;95.80
64644;BME280;51056;50.330;7.914;2024-02-04T11:57:38;101345.19;;;10.26;95.55
64644;BME280;51056;50.330;7.914;2024-02-04T12:00:42;101321.75;;;10.23;96.11
64644;BME280;51056;50.330;7.914;2024-02-04T12:03:46;101334.16;;;10.18;97.60
64644;BME280;51056;50.330;7.914;2024-02-04T12:06:50;101330.84;;;10.13;98.53
64644;BME280;51056;50.330;7.914;2024-02-04T12:09:55;101333.00;;;10.25;96.06
64644;BME280;51056;50.330;7.914;2024-02-04T12:13:03;101335.53;;;10.28;95.66
64644;BME280;51056;50.330;7.914;2024-02-04T12:16:07;101329.16;;;10.35;95.10
64644;BME280;51056;50.330;7.914;2024-02-04T12:19:13;101318.50;;;10.40;95.50
64644;BME280;51056;50.330;7.914;2024-02-04T12:22:16;101328.13;;;10.39;96.43
64644;BME280;51056;50.330;7.914;2024-02-04T12:25:19;101308.97;;;10.39;95.09
64644;BME280;51056;50.330;7.914;2024-02-04T12:28:22;101321.44;;;10.32;96.44
64644;BME280;51056;50.330;7.914;2024-02-04T12:31:29;101309.16;;;10.34;95.52
64644;BME280;51056;50.330;7.914;2024-02-04T12:34:34;101289.94;;;10.35;95.47
64644;BME280;51056;50.330;7.914;2024-02-04T12:37:49;101292.47;;;10.37;96.97
64644;BME280;51056;50.330;7.914;2024-02-04T12:41:00;101288.84;;;10.41;95.47
64644;BME280;51056;50.330;7.914;2024-02-04T12:45:09;101276.31;;;10.49;95.84
64644;BME280;51056;50.330;7.914;2024-02-04T12:48:14;101282.34;;;10.51;96.41
64644;BME280;51056;50.330;7.914;2024-02-04T12:54:26;101300.19;;;10.40;95.25
64644;BME280;51056;50.330;7.914;2024-02-04T12:57:30;101304.53;;;10.41;96.43
64644;BME280;51056;50.330;7.914;2024-02-04T13:00:33;101307.09;;;10.42;96.38
64644;BME280;51056;50.330;7.914;2024-02-04T13:03:36;101309.66;;;10.44;98.12
64644;BME280;51056;50.330;7.914;2024-02-04T13:06:40;101320.97;;;10.44;98.99
64644;BME280;51056;50.330;7.914;2024-02-04T13:09:43;101300.94;;;10.20;100.00
64644;BME280;51056;50.330;7.914;2024-02-04T13:12:57;101300.63;;;10.29;100.00
64644;BME280;51056;50.330;7.914;2024-02-04T13:16:00;101289.13;;;10.33;100.00
64644;BME280;51056;50.330;7.914;2024-02-04T13:19:03;101277.56;;;10.40;100.00
64644;BME280;51056;50.330;7.914;2024-02-04T13:22:06;101277.53;;;10.17;100.00
64644;BME280;51056;50.330;7.914;2024-02-04T13:25:09;101285.28;;;10.20;100.00
64644;BME280;51056;50.330;7.914;2024-02-04T13:28:11;101272.69;;;10.31;100.00
64644;BME280;51056;50.330;7.914;2024-02-04T13:31:15;101275.84;;;10.16;100.00
64644;BME280;51056;50.330;7.914;2024-02-04T13:34:17;101272.88;;;10.25;100.00
64644;BME280;51056;50.330;7.914;2024-02-04T13:37:30;101269.47;;;10.23;100.00
64644;BME280;51056;50.330;7.914;2024-02-04T13:40:33;101290.63;;;10.17;100.00
64644;BME280;51056;50.330;7.914;2024-02-04T13:43:37;101281.69;;;10.22;100.00
64644;BME280;51056;50.330;7.914;2024-02-04T13:46:40;101270.13;;;10.30;100.00
64644;BME280;51056;50.330;7.914;2024-02-04T13:49:46;101272.81;;;10.28;100.00
64644;BME280;51056;50.330;7.914;2024-02-04T13:52:49;101268.56;;;10.24;100.00
64644;BME280;51056;50.330;7.914;2024-02-04T13:55:53;101279.72;;;10.29;100.00
64644;BME280;51056;50.330;7.914;2024-02-04T13:58:57;101261.22;;;10.34;100.00
64644;BME280;51056;50.330;7.914;2024-02-04T14:02:00;101267.91;;;10.19;100.00
64644;BME280;51056;50.330;7.914;2024-02-04T14:05:05;101254.03;;;10.17;100.00
64644;BME280;51056;50.330;7.914;2024-02-04T14:08:09;101266.56;;;10.09;100.00
64644;BME280;51056;50.330;7.914;2024-02-04T14:11:12;101270.13;;;10.06;100.00
64644;BME280;51056;50.330;7.914;2024-02-04T14:14:15;101272.50;;;10.12;100.00
64644;BME280;51056;50.330;7.914;2024-02-04T14:17:19;101270.19;;;10.05;100.00
64644;BME280;51056;50.330;7.914;2024-02-04T14:20:23;101266.78;;;10.02;100.00
64644;BME280;51056;50.330;7.914;2024-02-04T14:23:26;101275.41;;;10.05;100.00
64644;BME280;51056;50.330;7.914;2024-02-04T14:26:32;101277.16;;;10.04;100.00
64644;BME280;51056;50.330;7.914;2024-02-04T14:29:36;101268.78;;;9.96;100.00
64644;BME280;51056;50.330;7.914;2024-02-04T14:32:40;101259.09;;;9.98;100.00
64644;BME280;51056;50.330;7.914;2024-02-04T14:35:43;101271.44;;;9.94;100.00
64644;BME280;51056;50.330;7.914;2024-02-04T14:38:45;101256.72;;;9.92;100.00
64644;BME280;51056;50.330;7.914;2024-02-04T14:41:49;101270.41;;;9.98;100.00
64644;BME280;51056;50.330;7.914;2024-02-04T14:44:52;101262.88;;;9.91;100.00
64644;BME280;51056;50.330;7.914;2024-02-04T14:47:56;101270.53;;;9.95;100.00
64644;BME280;51056;50.330;7.914;2024-02-04T14:51:00;101278.25;;;9.98;100.00
64644;BME280;51056;50.330;7.914;2024-02-04T14:54:04;101277.34;;;9.99;100.00
64644;BME280;51056;50.330;7.914;2024-02-04T14:57:10;101277.34;;;9.99;100.00
64644;BME280;51056;50.330;7.914;2024-02-04T15:00:13;101277.25;;;10.02;100.00
64644;BME280;51056;50.330;7.914;2024-02-04T15:03:17;101275.28;;;10.08;100.00
64644;BME280;51056;50.330;7.914;2024-02-04T15:06:20;101277.25;;;10.02;100.00
64644;BME280;51056;50.330;7.914;2024-02-04T15:09:23;101276.44;;;10.00;100.00
64644;BME280;51056;50.330;7.914;2024-02-04T15:12:26;101279.38;;;9.91;100.00
64644;BME280;51056;50.330;7.914;2024-02-04T15:15:31;101274.00;;;9.96;100.00
64644;BME280;51056;50.330;7.914;2024-02-04T15:18:34;101286.19;;;9.95;100.00
64644;BME280;51056;50.330;7.914;2024-02-04T15:21:38;101280.84;;;9.98;100.00
64644;BME280;51056;50.330;7.914;2024-02-04T15:24:41;101275.75;;;9.95;100.00
64644;BME280;51056;50.330;7.914;2024-02-04T15:27:44;101268.28;;;9.86;100.00
64644;BME280;51056;50.330;7.914;2024-02-04T15:30:48;101272.28;;;9.95;100.00
64644;BME280;51056;50.330;7.914;2024-02-04T15:33:51;101265.66;;;9.86;100.00
64644;BME280;51056;50.330;7.914;2024-02-04T15:36:56;101256.94;;;9.86;100.00
64644;BME280;51056;50.330;7.914;2024-02-04T15:39:58;101238.28;;;9.96;100.00
64644;BME280;51056;50.330;7.914;2024-02-04T15:43:02;101229.63;;;9.94;100.00
64644;BME280;51056;50.330;7.914;2024-02-04T15:46:08;101230.09;;;10.06;100.00
64644;BME280;51056;50.330;7.914;2024-02-04T15:49:14;101232.59;;;10.09;100.00
64644;BME280;51056;50.330;7.914;2024-02-04T15:52:17;101226.44;;;10.10;100.00
64644;BME280;51056;50.330;7.914;2024-02-04T15:55:21;101243.16;;;10.06;100.00
64644;BME280;51056;50.330;7.914;2024-02-04T15:58:25;101233.34;;;10.11;100.00
64644;BME280;51056;50.330;7.914;2024-02-04T16:01:30;101236.66;;;10.16;100.00
64644;BME280;51056;50.330;7.914;2024-02-04T16:04:36;101253.00;;;10.21;100.00
64644;BME280;51056;50.330;7.914;2024-02-04T16:07:39;101239.72;;;10.27;100.00
64644;BME280;51056;50.330;7.914;2024-02-04T16:10:42;101242.53;;;10.21;100.00
64644;BME280;51056;50.330;7.914;2024-02-04T16:13:47;101238.09;;;10.23;100.00
64644;BME280;51056;50.330;7.914;2024-02-04T16:16:53;101223.47;;;10.19;100.00
64644;BME280;51056;50.330;7.914;2024-02-04T16:19:59;101235.28;;;10.29;100.00
64644;BME280;51056;50.330;7.914;2024-02-04T16:23:04;101234.38;;;10.30;100.00
64644;BME280;51056;50.330;7.914;2024-02-04T16:26:07;101233.53;;;10.30;100.00
64644;BME280;51056;50.330;7.914;2024-02-04T16:29:11;101225.63;;;10.31;100.00